Aeroporto :
LOGIN :

Iscrizione | Disclaimer

   EN    FR    IT 

 










Sommario :    VFR   VFR Marginale   IFR   IFR Intensivo   IFR Molto Intensivo
Visibilità : 
Base nubi : 
>= 8 km
>= 3000ft
5 / 8 km
1000 / 3000 ft
1500m / 5 km
500 / 1000 ft
800 / 1500m
200 / 500 ft
< 800m
< 200 ft
Simboli :   Temporali  Nebbia  Neve Forte  Precipitazioni Forti  Vento > 20 kt
SIGMETs :   Varie  Temporali  Ghiacco  Turbolenza  Onda orograficha  Ceneri Vulcaniche






- Altitudine del aeroporto : 20 ft


EBFN - Koksijde

ULTIMO METAR :
  • 290025Z AUTO 06009KT 0300 FG OVC002/// 03/03 Q1022 RED

METARs OBSOLETI :
  • 282355Z AUTO 05007KT 0200 -RA SCT002/// 03/03 Q1022 RED
  • 282349Z AUTO 06007KT 1400 BR FEW002/// 03/03 Q1022 AMB
  • 282325Z AUTO 05005KT 2400 BR NCD 03/03 Q1022 YLO
  • 282255Z AUTO 05004KT 2700 BR NCD 03/03 Q1022 YLO
  • 282225Z AUTO 06005KT 3000 BR NCD 04/04 Q1022 YLO
  • 282155Z AUTO 06005KT 2600 BR NCD 04/04 Q1022 YLO

TAF TAF EBFN
Valido dal 28 a 19 ore il 29 a 07 ore UTC


281541Z 2819/2907 07006KT 7000 FEW300
BECMG 2822/2924 4000 BR SCT060
BECMG 2900/2902 2000 BR BKN003
TEMPO 2902/2907 VRB03KT 0800 FG BKN002
TEMPO 2902/2907 VRB03KT 0200 FG BKN001



MetMap, La meteo Aeronautica in un colpo d'occhio ! - Copyright ORBIFLY Dicembre 2007 - Disclaimer

ORBIFLY MET'MAP TEAM :

Programmazione e sviluppo : Alexandra Zaïnal
Concezione : Baudouin d'Aumeries
Aiuto per la programmazione : Marc-Olivier Méhu
Supporto tecnico e logistico : Manuel Goepfert
Aiuto per la traduzione : Arnaldo La Scala

Contatto : metmap@orbifly.com




FONTI E CREDITI :

   NOAA